Time;durP1;ratioP1;P1;durP2;ratioP2;P2;SDS_P1;SDS_P2;PMS_P1;PMS_P2;Temp;Humidity;BMP_temperature;BMP_pressure;BME280_temperature;BME280_humidity;BME280_pressure;Samples;Min_cycle;Max_cycle;Signal;HPM_P1;HPM_P2
2021/05/07 00:00:53;;;;;;;;;;;;;;;2.65;100.00;99735.22;5091006;28;19928;-69
2021/05/07 00:03:19;;;;;;;;;;;;;;;2.62;100.00;99738.09;5091279;28;20301;-70
2021/05/07 00:05:51;;;;;;;;;;;;;;;2.56;100.00;99728.63;5091564;28;19920;-69
2021/05/07 00:08:17;;;;;;;;;;;;;;;2.51;100.00;99736.09;5091817;28;19927;-69
2021/05/07 00:10:43;;;;;;;;;;;;;;;2.45;100.00;99732.00;5091935;28;19920;-69
2021/05/07 00:13:09;;;;;;;;;;;;;;;2.41;100.00;99733.16;5091854;28;19919;-69
2021/05/07 00:15:35;;;;;;;;;;;;;;;2.40;100.00;99727.91;5090386;28;19955;-69
2021/05/07 00:18:01;;;;;;;;;;;;;;;2.38;100.00;99730.66;5073495;28;20299;-70
2021/05/07 00:20:27;;;;;;;;;;;;;;;2.33;100.00;99735.44;5091661;28;19927;-70
2021/05/07 00:22:53;;;;;;;;;;;;;;;2.28;100.00;99732.19;5091306;28;19920;-70
2021/05/07 00:25:18;;;;;;;;;;;;;;;2.29;100.00;99728.56;5073408;28;19939;-70
2021/05/07 00:27:44;;;;;;;;;;;;;;;2.28;100.00;99726.84;5091495;28;20446;-70
2021/05/07 00:30:12;;;;;;;;;;;;;;;2.25;100.00;99727.91;5073636;28;20290;-70
2021/05/07 00:32:38;;;;;;;;;;;;;;;2.18;100.00;99719.38;5072336;28;20330;-70
2021/05/07 00:35:04;;;;;;;;;;;;;;;2.15;100.00;99718.69;5091343;28;19920;-70
2021/05/07 00:37:29;;;;;;;;;;;;;;;2.12;100.00;99722.44;5072918;28;19936;-70
2021/05/07 00:39:55;;;;;;;;;;;;;;;2.11;100.00;99722.53;5073317;28;19932;-70
2021/05/07 00:42:21;;;;;;;;;;;;;;;2.11;100.00;99722.53;5091832;28;19939;-70
2021/05/07 00:44:47;;;;;;;;;;;;;;;2.12;100.00;99722.44;5091354;28;19981;-70
2021/05/07 00:47:16;;;;;;;;;;;;;;;2.14;100.00;99722.38;5072183;28;19920;-70
2021/05/07 00:49:43;;;;;;;;;;;;;;;2.20;100.00;99708.56;5090688;28;22581;-70
2021/05/07 00:52:14;;;;;;;;;;;;;;;2.26;100.00;99718.03;5073218;28;20326;-70
2021/05/07 00:54:40;;;;;;;;;;;;;;;2.29;100.00;99712.50;5091081;28;20052;-70
2021/05/07 00:57:06;;;;;;;;;;;;;;;2.33;100.00;99703.31;5073164;28;19970;-70
2021/05/07 00:59:32;;;;;;;;;;;;;;;2.34;100.00;99702.38;5056341;28;19963;-70
2021/05/07 01:01:58;;;;;;;;;;;;;;;2.30;100.00;99706.19;5070959;28;20034;-70
2021/05/07 01:04:26;;;;;;;;;;;;;;;2.30;100.00;99707.03;5090675;28;19947;-70
2021/05/07 01:06:52;;;;;;;;;;;;;;;2.33;100.00;99708.66;5073092;28;20030;-70
2021/05/07 01:09:18;;;;;;;;;;;;;;;2.36;100.00;99704.94;5072884;28;19924;-70
2021/05/07 01:11:44;;;;;;;;;;;;;;;2.37;100.00;99709.34;5073209;28;20448;-70
2021/05/07 01:14:10;;;;;;;;;;;;;;;2.36;100.00;99705.78;5072954;28;20401;-70
2021/05/07 01:16:37;;;;;;;;;;;;;;;2.36;100.00;99702.25;5089532;28;19963;-70
2021/05/07 01:19:04;;;;;;;;;;;;;;;2.34;100.00;99702.38;5090655;28;20299;-70
2021/05/07 01:21:32;;;;;;;;;;;;;;;2.30;100.00;99699.00;5072677;28;19924;-70
2021/05/07 01:23:58;;;;;;;;;;;;;;;2.30;100.00;99701.69;5090821;28;20391;-70
2021/05/07 01:26:24;;;;;;;;;;;;;;;2.31;100.00;99702.53;5072754;28;19924;-70
2021/05/07 01:28:49;;;;;;;;;;;;;;;2.33;100.00;99703.31;5091100;28;19931;-70
2021/05/07 01:31:16;;;;;;;;;;;;;;;2.28;100.00;99700.06;5089740;28;20016;-70
2021/05/07 01:33:42;;;;;;;;;;;;;;;2.26;100.00;99694.81;5090415;28;19924;-70
2021/05/07 01:36:08;;;;;;;;;;;;;;;2.29;100.00;99702.63;5090814;28;19931;-70
2021/05/07 01:38:37;;;;;;;;;;;;;;;2.31;100.00;99702.53;5090578;28;19928;-70
2021/05/07 01:41:06;;;;;;;;;;;;;;;2.32;100.00;99704.25;5072722;28;20322;-70
2021/05/07 01:43:37;;;;;;;;;;;;;;;2.33;100.00;99701.47;5072016;28;19924;-70
2021/05/07 01:46:04;;;;;;;;;;;;;;;2.36;100.00;99711.13;5089570;28;19979;-70
2021/05/07 01:48:31;;;;;;;;;;;;;;;2.38;100.00;99703.88;5090162;28;19928;-70
2021/05/07 01:50:57;;;;;;;;;;;;;;;2.38;100.00;99703.00;5075340;28;19934;-70
2021/05/07 01:53:23;;;;;;;;;;;;;;;2.40;100.00;99701.94;5076311;28;19924;-70
2021/05/07 01:55:50;;;;;;;;;;;;;;;2.42;100.00;99702.72;5094289;28;19932;-70
2021/05/07 01:58:25;;;;;;;;;;;;;;;2.38;100.00;99698.53;5059580;28;19931;-70
2021/05/07 02:00:53;;;;;;;;;;;;;;;2.36;100.00;99696.91;5075000;28;20033;-71
2021/05/07 02:03:20;;;;;;;;;;;;;;;2.34;100.00;99699.69;5075925;28;19928;-70
2021/05/07 02:05:55;;;;;;;;;;;;;;;2.31;100.00;99697.19;5076085;28;19971;-70
2021/05/07 02:08:22;;;;;;;;;;;;;;;2.28;100.00;99702.75;5093609;28;19932;-70
2021/05/07 02:10:47;;;;;;;;;;;;;;;2.30;100.00;99701.69;5094431;28;19928;-70
2021/05/07 02:13:16;;;;;;;;;;;;;;;2.29;100.00;99709.81;5076006;28;19924;-70
2021/05/07 02:15:48;;;;;;;;;;;;;;;2.31;100.00;99702.53;5075134;28;19972;-70
2021/05/07 02:18:17;;;;;;;;;;;;;;;2.33;100.00;99704.16;5094222;28;19935;-70
2021/05/07 02:20:46;;;;;;;;;;;;;;;2.35;100.00;99704.06;5095232;28;20018;-70
2021/05/07 02:23:14;;;;;;;;;;;;;;;2.33;100.00;99700.63;5094725;28;19924;-70
2021/05/07 02:25:40;;;;;;;;;;;;;;;2.35;100.00;99701.38;5094386;28;20402;-70
2021/05/07 02:28:10;;;;;;;;;;;;;;;2.38;100.00;99695.84;5075630;28;19928;-70
2021/05/07 02:30:38;;;;;;;;;;;;;;;2.37;100.00;99695.94;5074625;28;19924;-70
2021/05/07 02:33:06;;;;;;;;;;;;;;;2.37;100.00;99695.94;5093563;28;19928;-70
2021/05/07 02:35:33;;;;;;;;;;;;;;;2.40;100.00;99698.44;5093492;28;19928;-70
2021/05/07 02:37:59;;;;;;;;;;;;;;;2.39;100.00;99696.69;5093559;28;20351;-70
2021/05/07 02:40:25;;;;;;;;;;;;;;;2.39;100.00;99694.88;5075635;28;20327;-72
2021/05/07 02:42:51;;;;;;;;;;;;;;;2.37;100.00;99688.75;5075461;28;19924;-70
2021/05/07 02:45:18;;;;;;;;;;;;;;;2.34;100.00;99688.97;5092786;28;20006;-70
2021/05/07 02:47:45;;;;;;;;;;;;;;;2.33;100.00;99690.75;5073805;28;19963;-70
2021/05/07 02:50:12;;;;;;;;;;;;;;;2.40;100.00;99685.88;5075296;28;19925;-70
2021/05/07 02:52:41;;;;;;;;;;;;;;;2.40;100.00;99685.88;5075247;28;20021;-70
2021/05/07 02:55:08;;;;;;;;;;;;;;;2.39;100.00;99684.16;5075083;28;19977;-70
2021/05/07 02:57:34;;;;;;;;;;;;;;;2.39;100.00;99673.44;5074985;28;19924;-70
2021/05/07 03:00:00;;;;;;;;;;;;;;;2.40;100.00;99679.69;5074875;28;19924;-70
2021/05/07 03:02:26;;;;;;;;;;;;;;;2.41;100.00;99681.41;5073790;28;19928;-70
2021/05/07 03:04:53;;;;;;;;;;;;;;;2.42;100.00;99680.41;5092672;28;20404;-70
2021/05/07 03:07:19;;;;;;;;;;;;;;;2.44;100.00;99675.84;5074917;28;19924;-70
2021/05/07 03:09:45;;;;;;;;;;;;;;;2.41;100.00;99676.91;5092926;28;20426;-70
2021/05/07 03:12:11;;;;;;;;;;;;;;;2.35;100.00;99674.59;5093076;28;19924;-69
2021/05/07 03:14:36;;;;;;;;;;;;;;;2.33;100.00;99688.09;5092337;28;20014;-70
2021/05/07 03:17:02;;;;;;;;;;;;;;;2.30;100.00;99687.44;5091332;28;19977;-70
2021/05/07 03:19:28;;;;;;;;;;;;;;;2.26;100.00;99694.81;5092734;28;19924;-71
2021/05/07 03:21:55;;;;;;;;;;;;;;;2.22;100.00;99697.75;5092691;28;19924;-71
2021/05/07 03:24:21;;;;;;;;;;;;;;;2.18;100.00;99697.97;5092840;28;19935;-71
2021/05/07 03:26:47;;;;;;;;;;;;;;;2.13;100.00;99700.06;5092869;28;19924;-70
2021/05/07 03:29:12;;;;;;;;;;;;;;;2.12;100.00;99701.00;5092503;28;19924;-72
2021/05/07 03:31:38;;;;;;;;;;;;;;;2.13;100.00;99699.22;5091773;28;19977;-70
2021/05/07 03:34:05;;;;;;;;;;;;;;;2.16;100.00;99705.25;5092548;28;19924;-70
2021/05/07 03:36:31;;;;;;;;;;;;;;;2.18;100.00;99708.66;5092283;28;19924;-70
2021/05/07 03:38:57;;;;;;;;;;;;;;;2.21;100.00;99706.78;5092623;28;20284;-70
2021/05/07 03:41:23;;;;;;;;;;;;;;;2.25;100.00;99709.16;5092193;28;19924;-70
2021/05/07 03:43:49;;;;;;;;;;;;;;;2.30;100.00;99709.72;5092737;28;19963;-70
2021/05/07 03:46:15;;;;;;;;;;;;;;;2.34;100.00;99705.03;5090946;28;19932;-71
2021/05/07 03:48:41;;;;;;;;;;;;;;;2.38;100.00;99714.59;5092099;28;19924;-70
2021/05/07 03:51:07;;;;;;;;;;;;;;;2.45;100.00;99715.06;5074039;28;19947;-70
2021/05/07 03:53:33;;;;;;;;;;;;;;;2.50;100.00;99719.16;5092024;28;20060;-70
2021/05/07 03:55:59;;;;;;;;;;;;;;;2.58;100.00;99720.50;5092287;28;19924;-71
2021/05/07 03:58:25;;;;;;;;;;;;;;;2.68;100.00;99727.00;5091812;28;20347;-70
2021/05/07 04:00:51;;;;;;;;;;;;;;;2.74;100.00;99721.25;5088742;28;19931;-70
2021/05/07 04:03:17;;;;;;;;;;;;;;;2.85;100.00;99729.44;5085997;28;19924;-70
2021/05/07 04:05:46;;;;;;;;;;;;;;;2.93;100.00;99726.25;5085850;28;19932;-71
2021/05/07 04:08:14;;;;;;;;;;;;;;;3.03;100.00;99722.97;5071546;28;19925;-71
2021/05/07 04:10:42;;;;;;;;;;;;;;;3.12;100.00;99725.91;5071656;28;20061;-71
2021/05/07 04:13:34;;;;;;;;;;;;;;;3.23;100.00;99721.66;5070895;28;20383;-71
2021/05/07 04:16:00;;;;;;;;;;;;;;;3.33;100.00;99725.44;5074979;28;19931;-70
2021/05/07 04:18:26;;;;;;;;;;;;;;;3.41;100.00;99724.91;5091566;28;19928;-71
2021/05/07 04:20:52;;;;;;;;;;;;;;;3.40;100.00;99732.09;5091717;28;19931;-71
2021/05/07 04:23:18;;;;;;;;;;;;;;;3.45;100.00;99727.31;5091419;28;19924;-71
2021/05/07 04:25:44;;;;;;;;;;;;;;;3.52;100.00;99733.97;5091593;28;19931;-71
2021/05/07 04:28:10;;;;;;;;;;;;;;;3.64;100.00;99736.78;5091486;28;19928;-71
2021/05/07 04:30:37;;;;;;;;;;;;;;;3.72;100.00;99744.31;5090384;28;19931;-70
2021/05/07 04:33:03;;;;;;;;;;;;;;;3.81;100.00;99744.53;5091169;28;19939;-70
2021/05/07 04:35:29;;;;;;;;;;;;;;;3.92;100.00;99740.28;5082281;28;19924;-70
2021/05/07 04:37:55;;;;;;;;;;;;;;;4.08;100.00;99746.28;5081896;28;19978;-71
2021/05/07 04:40:20;;;;;;;;;;;;;;;4.25;100.00;99738.84;5067870;28;19924;-71
2021/05/07 04:42:46;;;;;;;;;;;;;;;4.41;100.00;99739.50;5071437;28;19990;-70
2021/05/07 04:45:13;;;;;;;;;;;;;;;4.55;100.00;99738.50;5087810;28;19924;-70
2021/05/07 04:47:39;;;;;;;;;;;;;;;4.69;100.00;99742.91;5088893;28;19935;-70
2021/05/07 04:50:06;;;;;;;;;;;;;;;4.84;100.00;99749.84;5091254;28;19967;-70
2021/05/07 04:52:32;;;;;;;;;;;;;;;4.94;100.00;99754.56;5089246;28;19928;-69
2021/05/07 04:54:58;;;;;;;;;;;;;;;4.99;100.00;99753.22;5090990;28;19924;-69
2021/05/07 04:57:24;;;;;;;;;;;;;;;5.05;100.00;99767.22;5090868;28;19930;-69
2021/05/07 04:59:50;;;;;;;;;;;;;;;5.06;100.00;99767.09;5091215;28;19924;-70
2021/05/07 05:02:15;;;;;;;;;;;;;;;5.14;100.00;99766.53;5071888;28;19928;-69
2021/05/07 05:04:42;;;;;;;;;;;;;;;5.19;100.00;99767.91;5090881;28;20014;-69
2021/05/07 05:07:09;;;;;;;;;;;;;;;5.16;100.00;99769.97;5091144;28;19931;-69
2021/05/07 05:09:34;;;;;;;;;;;;;;;5.11;100.00;99773.00;5090686;28;19959;-69
2021/05/07 05:12:00;;;;;;;;;;;;;;;5.06;100.00;99775.16;5073150;28;19932;-69
2021/05/07 05:14:26;;;;;;;;;;;;;;;5.10;100.00;99779.34;5090886;28;19928;-69
2021/05/07 05:16:52;;;;;;;;;;;;;;;5.13;100.00;99778.25;5089965;28;20299;-69
2021/05/07 05:19:18;;;;;;;;;;;;;;;5.13;100.00;99779.13;5090827;28;19924;-69
2021/05/07 05:21:44;;;;;;;;;;;;;;;5.22;100.00;99791.03;5089840;28;19928;-70
2021/05/07 05:24:10;;;;;;;;;;;;;;;5.20;100.00;99799.22;5074801;28;19924;-69
2021/05/07 05:26:36;;;;;;;;;;;;;;;5.12;100.00;99800.78;5083945;28;20071;-69
2021/05/07 05:29:02;;;;;;;;;;;;;;;5.08;100.00;99791.19;5094410;28;20066;-70
2021/05/07 05:31:28;;;;;;;;;;;;;;;5.12;100.00;99790.00;5087913;28;19928;-70
2021/05/07 05:33:54;;;;;;;;;;;;;;;5.22;100.00;99795.56;5087435;28;20022;-68
2021/05/07 05:36:21;;;;;;;;;;;;;;;5.23;100.00;99803.53;5082124;28;19932;-68
2021/05/07 05:38:48;;;;;;;;;;;;;;;5.15;100.00;99805.94;5074298;28;20035;-68
2021/05/07 05:41:14;;;;;;;;;;;;;;;5.11;100.00;99805.28;5057435;28;19950;-67
2021/05/07 05:43:40;;;;;;;;;;;;;;;5.13;100.00;99806.03;5074285;28;19924;-67
2021/05/07 05:46:06;;;;;;;;;;;;;;;5.15;100.00;99808.63;5080569;28;19932;-66
2021/05/07 05:48:32;;;;;;;;;;;;;;;5.08;100.00;99807.31;5084181;28;19986;-66
2021/05/07 05:50:57;;;;;;;;;;;;;;;5.10;100.00;99803.56;5082747;28;19924;-66
2021/05/07 05:53:23;;;;;;;;;;;;;;;5.17;100.00;99809.34;5076732;28;19932;-66
2021/05/07 05:55:50;;;;;;;;;;;;;;;5.40;100.00;99812.16;5073924;28;19924;-66
2021/05/07 05:58:16;;;;;;;;;;;;;;;5.50;100.00;99810.53;5074602;28;20358;-66
2021/05/07 06:00:42;;;;;;;;;;;;;;;5.60;100.00;99814.25;5074664;28;20015;-66
2021/05/07 06:03:08;;;;;;;;;;;;;;;5.64;100.00;99821.13;5092837;28;20403;-66
2021/05/07 06:05:34;;;;;;;;;;;;;;;5.50;100.00;99822.13;5093635;28;20284;-66
2021/05/07 06:07:59;;;;;;;;;;;;;;;5.73;100.00;99827.63;5092393;28;20357;-67
2021/05/07 06:10:25;;;;;;;;;;;;;;;5.74;100.00;99825.81;5085973;28;19924;-66
2021/05/07 06:12:52;;;;;;;;;;;;;;;5.68;100.00;99835.22;5092403;28;19924;-66
2021/05/07 06:15:18;;;;;;;;;;;;;;;5.79;100.00;99837.97;5073433;28;19924;-66
2021/05/07 06:17:44;;;;;;;;;;;;;;;5.92;100.00;99831.63;5090970;28;19957;-66
2021/05/07 06:20:12;;;;;;;;;;;;;;;5.98;100.00;99831.22;5092126;28;19931;-66
2021/05/07 06:22:38;;;;;;;;;;;;;;;5.75;100.00;99833.78;5080276;28;20337;-66
2021/05/07 06:25:05;;;;;;;;;;;;;;;5.63;100.00;99832.00;5095635;28;19931;-67
2021/05/07 06:27:31;;;;;;;;;;;;;;;5.63;100.00;99835.56;5093059;28;19931;-65
2021/05/07 06:29:57;;;;;;;;;;;;;;;5.59;100.00;99836.75;5092180;28;19931;-66
2021/05/07 06:32:23;;;;;;;;;;;;;;;5.64;100.00;99842.66;5092059;28;19931;-65
2021/05/07 06:34:49;;;;;;;;;;;;;;;5.65;100.00;99841.69;5084915;28;19924;-64
2021/05/07 06:37:15;;;;;;;;;;;;;;;5.90;100.00;99847.91;5089805;28;20027;-67
2021/05/07 06:39:41;;;;;;;;;;;;;;;5.82;100.00;99853.88;5092637;28;19932;-67
2021/05/07 06:42:07;;;;;;;;;;;;;;;5.63;100.00;99856.25;5076741;28;20461;-66
2021/05/07 06:44:33;;;;;;;;;;;;;;;5.70;100.00;99855.69;5081770;28;19928;-66
2021/05/07 06:47:01;;;;;;;;;;;;;;;5.63;100.00;99854.41;5069738;28;19924;-66
2021/05/07 06:49:27;;;;;;;;;;;;;;;5.53;100.00;99867.69;5080305;28;19932;-66
2021/05/07 06:51:53;;;;;;;;;;;;;;;5.66;100.00;99870.31;5073019;28;19924;-66
2021/05/07 06:54:25;;;;;;;;;;;;;;;5.61;100.00;99877.91;5075234;28;19925;-66
2021/05/07 06:56:51;;;;;;;;;;;;;;;5.46;100.00;99885.25;5057951;28;20282;-66
2021/05/07 06:59:18;;;;;;;;;;;;;;;5.34;100.00;99881.66;5084340;28;19924;-66
2021/05/07 07:01:44;;;;;;;;;;;;;;;5.36;100.00;99895.00;5091266;28;20362;-66
2021/05/07 07:04:11;;;;;;;;;;;;;;;5.37;100.00;99875.16;5089981;28;20015;-66
2021/05/07 07:06:37;;;;;;;;;;;;;;;5.42;100.00;99881.06;5086135;28;19963;-66
2021/05/07 07:09:02;;;;;;;;;;;;;;;5.43;100.00;99885.50;5092422;28;19931;-66
2021/05/07 07:11:28;;;;;;;;;;;;;;;5.40;100.00;99891.09;5092632;28;20015;-66
2021/05/07 07:13:54;;;;;;;;;;;;;;;5.37;100.00;99885.94;5084162;28;20249;-67
2021/05/07 07:16:20;;;;;;;;;;;;;;;5.39;100.00;99889.38;5087085;28;20459;-67
2021/05/07 07:18:46;;;;;;;;;;;;;;;5.48;100.00;99898.63;5085341;28;19956;-66
2021/05/07 07:21:12;;;;;;;;;;;;;;;5.43;100.00;99898.94;5081802;28;19982;-66
2021/05/07 07:23:38;;;;;;;;;;;;;;;5.41;100.00;99895.53;5071935;28;20444;-66
2021/05/07 07:26:05;;;;;;;;;;;;;;;5.37;100.00;99907.47;5087350;28;20390;-66
2021/05/07 07:28:31;;;;;;;;;;;;;;;5.37;100.00;99904.75;5090537;28;19924;-66
2021/05/07 07:30:57;;;;;;;;;;;;;;;5.38;100.00;99909.19;5087588;28;19939;-66
2021/05/07 07:33:23;;;;;;;;;;;;;;;5.33;100.00;99914.91;5090246;28;19924;-66
2021/05/07 07:35:49;;;;;;;;;;;;;;;5.27;100.00;99922.56;5090147;28;20291;-66
2021/05/07 07:38:15;;;;;;;;;;;;;;;5.25;100.00;99929.88;5090439;28;19924;-65
2021/05/07 07:40:41;;;;;;;;;;;;;;;5.17;100.00;99925.03;5092015;28;19931;-66
2021/05/07 07:43:07;;;;;;;;;;;;;;;5.14;100.00;99928.81;5090402;28;19936;-66
2021/05/07 07:45:33;;;;;;;;;;;;;;;5.00;100.00;99939.72;5071167;28;20347;-65
2021/05/07 07:47:59;;;;;;;;;;;;;;;4.95;100.00;99944.56;5085547;28;20280;-66
2021/05/07 07:50:25;;;;;;;;;;;;;;;4.92;100.00;99952.81;5070119;28;20031;-65
2021/05/07 07:52:50;;;;;;;;;;;;;;;4.92;100.00;99955.50;5071881;28;20276;-65
2021/05/07 07:55:17;;;;;;;;;;;;;;;4.86;100.00;99956.81;5073636;28;20019;-65
2021/05/07 07:57:43;;;;;;;;;;;;;;;4.80;100.00;99970.69;5077110;28;20292;-65
2021/05/07 08:00:09;;;;;;;;;;;;;;;4.75;100.00;99976.38;5071265;28;19924;-65
2021/05/07 08:02:39;;;;;;;;;;;;;;;4.81;100.00;99983.16;5072258;28;19931;-65
2021/05/07 08:05:05;;;;;;;;;;;;;;;4.81;100.00;99985.84;5090784;28;19924;-66
2021/05/07 08:07:31;;;;;;;;;;;;;;;4.77;100.00;99990.59;5087038;28;20029;-65
2021/05/07 08:09:57;;;;;;;;;;;;;;;4.77;100.00;100001.34;5068587;28;19924;-66
2021/05/07 08:12:24;;;;;;;;;;;;;;;4.73;100.00;99996.25;5082379;28;19924;-66
2021/05/07 08:14:50;;;;;;;;;;;;;;;4.61;100.00;99997.97;5074983;28;20368;-65
2021/05/07 08:17:16;;;;;;;;;;;;;;;4.53;100.00;99996.66;5074831;28;19932;-66
2021/05/07 08:19:43;;;;;;;;;;;;;;;4.43;100.00;100006.31;5071263;28;19924;-66
2021/05/07 08:22:08;;;;;;;;;;;;;;;4.43;100.00;100006.31;5085965;28;20443;-66
2021/05/07 08:24:34;;;;;;;;;;;;;;;4.37;100.00;100017.47;5085207;28;19924;-66
2021/05/07 08:27:00;;;;;;;;;;;;;;;4.34;100.00;100021.22;5090359;28;19932;-65
2021/05/07 08:29:27;;;;;;;;;;;;;;;4.23;100.00;100022.91;5089382;28;20360;-65
2021/05/07 08:31:53;;;;;;;;;;;;;;;4.15;100.00;100026.09;5089675;28;20295;-65
2021/05/07 08:34:21;;;;;;;;;;;;;;;4.12;100.00;100034.34;5080132;28;20010;-66
2021/05/07 08:36:46;;;;;;;;;;;;;;;4.12;100.00;100037.88;5087058;28;19928;-65
2021/05/07 08:39:12;;;;;;;;;;;;;;;4.15;100.00;100042.19;5091347;28;20287;-66
2021/05/07 08:41:39;;;;;;;;;;;;;;;4.09;100.00;100045.28;5071747;28;19931;-66
2021/05/07 08:44:05;;;;;;;;;;;;;;;3.97;100.00;100049.66;5052440;28;19970;-65
2021/05/07 08:46:32;;;;;;;;;;;;;;;3.93;100.00;100050.78;5086842;28;19932;-66
2021/05/07 08:48:59;;;;;;;;;;;;;;;3.91;100.00;100053.56;5057328;28;19931;-65
2021/05/07 08:51:25;;;;;;;;;;;;;;;3.90;100.00;100067.09;5090710;28;20307;-65
2021/05/07 08:53:51;;;;;;;;;;;;;;;3.81;100.00;100072.09;5058874;28;19963;-65
2021/05/07 08:56:16;;;;;;;;;;;;;;;3.72;100.00;100067.31;5090821;28;19928;-64
2021/05/07 08:58:46;;;;;;;;;;;;;;;3.70;100.00;100077.25;5089920;28;20140;-64
2021/05/07 09:01:11;;;;;;;;;;;;;;;3.68;100.00;100081.88;5080688;28;20395;-65
2021/05/07 09:03:39;;;;;;;;;;;;;;;3.63;100.00;100089.34;5070422;28;19930;-65
2021/05/07 09:06:13;;;;;;;;;;;;;;;3.60;100.00;100089.56;5082539;28;19947;-64
2021/05/07 09:08:39;;;;;;;;;;;;;;;3.55;100.00;100095.19;5090558;28;19989;-65
2021/05/07 09:11:05;;;;;;;;;;;;;;;3.46;100.00;100098.44;5089029;28;19928;-65
2021/05/07 09:13:30;;;;;;;;;;;;;;;3.41;100.00;100111.28;5069424;28;19924;-65
2021/05/07 09:15:56;;;;;;;;;;;;;;;3.29;100.00;100116.44;5070710;28;19928;-66
2021/05/07 09:18:22;;;;;;;;;;;;;;;3.22;100.00;100111.53;5069721;28;19933;-66
2021/05/07 09:20:49;;;;;;;;;;;;;;;3.16;100.00;100118.16;5086487;28;19931;-65
2021/05/07 09:23:16;;;;;;;;;;;;;;;3.07;100.00;100130.28;5090639;28;19989;-66
2021/05/07 09:25:43;;;;;;;;;;;;;;;2.97;100.00;100123.75;5089704;28;19928;-64
2021/05/07 09:28:09;;;;;;;;;;;;;;;2.91;100.00;100132.16;5090698;28;19931;-65
2021/05/07 09:30:36;;;;;;;;;;;;;;;2.91;100.00;100134.84;5079783;28;20251;-65
2021/05/07 09:33:05;;;;;;;;;;;;;;;2.88;100.00;100138.56;5087966;28;19989;-65
2021/05/07 09:35:31;;;;;;;;;;;;;;;2.91;100.00;100149.09;5090298;28;20368;-64
2021/05/07 09:37:58;;;;;;;;;;;;;;;2.90;100.00;100159.91;5080187;28;19935;-66
2021/05/07 09:40:24;;;;;;;;;;;;;;;2.92;100.00;100158.00;5090049;28;19924;-66
2021/05/07 09:42:50;;;;;;;;;;;;;;;2.96;100.00;100167.59;5089794;28;20318;-66
2021/05/07 09:45:20;;;;;;;;;;;;;;;3.01;100.00;100168.19;5089809;28;19927;-66
2021/05/07 09:47:48;;;;;;;;;;;;;;;3.05;100.00;100174.22;5084398;28;19936;-66
2021/05/07 09:50:14;;;;;;;;;;;;;;;3.15;100.00;100181.66;5074309;28;19924;-66
2021/05/07 09:52:40;;;;;;;;;;;;;;;3.21;100.00;100192.97;5090131;28;19928;-66
2021/05/07 09:55:07;;;;;;;;;;;;;;;3.12;100.00;100191.72;5078029;28;20023;-66
2021/05/07 09:57:34;;;;;;;;;;;;;;;2.94;100.00;100194.50;5069419;28;19924;-65
2021/05/07 10:00:01;;;;;;;;;;;;;;;2.91;100.00;100210.75;5075349;28;19976;-65
2021/05/07 10:02:27;;;;;;;;;;;;;;;2.98;100.00;100208.59;5090376;28;19928;-63
2021/05/07 10:04:53;;;;;;;;;;;;;;;3.13;100.00;100209.53;5089824;28;19932;-63
2021/05/07 10:07:18;;;;;;;;;;;;;;;3.22;100.00;100213.47;5090604;28;19963;-63
2021/05/07 10:09:45;;;;;;;;;;;;;;;3.23;100.00;100215.22;5090180;28;19924;-63
2021/05/07 10:12:14;;;;;;;;;;;;;;;3.21;100.00;100219.78;5093385;28;19931;-63
2021/05/07 10:14:41;;;;;;;;;;;;;;;3.18;100.00;100219.03;5093620;28;19951;-63
2021/05/07 10:17:08;;;;;;;;;;;;;;;3.26;100.00;100218.59;5093777;28;19928;-63
2021/05/07 10:19:40;;;;;;;;;;;;;;;3.27;100.00;100225.66;5093692;28;19924;-64
2021/05/07 10:22:08;;;;;;;;;;;;;;;3.22;100.00;100224.22;5093513;28;19931;-64
2021/05/07 10:24:35;;;;;;;;;;;;;;;3.41;100.00;100230.22;5093501;28;20460;-63
2021/05/07 10:27:01;;;;;;;;;;;;;;;3.48;100.00;100233.41;5093712;28;20395;-63
2021/05/07 10:29:28;;;;;;;;;;;;;;;3.66;100.00;100236.78;5092681;28;19932;-64
2021/05/07 10:31:55;;;;;;;;;;;;;;;3.74;100.00;100239.91;5093521;28;19924;-64
2021/05/07 10:34:21;;;;;;;;;;;;;;;3.84;100.00;100242.88;5092949;28;19924;-63
2021/05/07 10:36:47;;;;;;;;;;;;;;;4.03;100.00;100239.94;5093600;28;19978;-63
2021/05/07 10:39:17;;;;;;;;;;;;;;;4.24;100.00;100242.25;5093448;28;19928;-63
2021/05/07 10:41:43;;;;;;;;;;;;;;;4.48;100.00;100245.22;5093020;28;19924;-64
2021/05/07 10:44:10;;;;;;;;;;;;;;;4.89;100.00;100240.81;5093328;28;19963;-63
2021/05/07 10:46:37;;;;;;;;;;;;;;;5.35;100.00;100243.16;5092699;28;19924;-63
2021/05/07 10:49:03;;;;;;;;;;;;;;;5.56;100.00;100230.09;5092765;28;19925;-63
2021/05/07 10:51:28;;;;;;;;;;;;;;;5.80;100.00;100235.63;5091913;28;19931;-63
2021/05/07 10:54:04;;;;;;;;;;;;;;;5.96;100.00;100230.03;5092837;28;19924;-63
2021/05/07 10:56:32;;;;;;;;;;;;;;;6.34;100.00;100229.16;5093253;28;19977;-63
2021/05/07 10:58:58;;;;;;;;;;;;;;;6.74;100.00;100230.81;5091493;28;19924;-63
2021/05/07 11:01:25;;;;;;;;;;;;;;;6.97;100.00;100233.66;5092919;28;19924;-63
2021/05/07 11:04:01;;;;;;;;;;;;;;;7.04;100.00;100232.22;5093011;28;19973;-63
2021/05/07 11:06:28;;;;;;;;;;;;;;;7.43;100.00;100238.34;5092344;28;19928;-64
2021/05/07 11:08:53;;;;;;;;;;;;;;;7.66;100.00;100231.16;5093006;28;19968;-63
2021/05/07 11:11:19;;;;;;;;;;;;;;;7.58;100.00;100235.44;5092518;28;19935;-63
2021/05/07 11:13:45;;;;;;;;;;;;;;;7.59;100.00;100234.44;5092898;28;19953;-63
2021/05/07 11:16:11;;;;;;;;;;;;;;;7.98;100.00;100240.47;5093055;28;19923;-63
2021/05/07 11:18:37;;;;;;;;;;;;;;;8.54;100.00;100242.38;5092440;28;19927;-63
2021/05/07 11:21:11;;;;;;;;;;;;;;;8.70;100.00;100242.88;5092752;28;19969;-63
2021/05/07 11:23:37;;;;;;;;;;;;;;;8.64;100.00;100247.91;5091964;28;20014;-63
2021/05/07 11:26:06;;;;;;;;;;;;;;;8.66;100.00;100245.97;5092619;28;19931;-63
2021/05/07 11:28:39;;;;;;;;;;;;;;;9.30;100.00;100241.63;5092518;28;19982;-63
2021/05/07 11:31:05;;;;;;;;;;;;;;;9.81;100.00;100242.78;5092736;28;20402;-63
2021/05/07 11:33:31;;;;;;;;;;;;;;;10.38;100.00;100246.00;5092138;28;19925;-63
2021/05/07 11:36:07;;;;;;;;;;;;;;;10.86;100.00;100233.59;5089890;28;20012;-63
2021/05/07 11:38:34;;;;;;;7.00;1.77;;;;;;;11.37;100.00;100238.00;5091834;28;20363;-63
2021/05/07 11:41:00;;;;;;;8.68;1.60;;;;;;;11.32;100.00;100240.28;5091637;28;20051;-63
2021/05/07 11:43:28;;;;;;;6.45;1.52;;;;;;;11.72;100.00;100233.00;5091490;28;20101;-64
2021/05/07 11:46:04;;;;;;;6.97;1.80;;;;;;;11.61;100.00;100239.44;5091725;28;20471;-63
2021/05/07 11:48:31;;;;;;;7.30;2.15;;;;;;;11.50;100.00;100237.69;5091360;28;20055;-63
2021/05/07 11:50:57;;;;;;;4.45;1.77;;;;;;;11.95;100.00;100239.00;5091807;28;20299;-63
2021/05/07 11:53:23;;;;;;;8.45;2.25;;;;;;;12.46;100.00;100234.16;5091130;28;20082;-63
2021/05/07 11:55:50;;;;;;;13.95;1.83;;;;;;;12.02;100.00;100231.97;5091526;28;20051;-63
2021/05/07 11:58:16;;;;;;;3.83;1.52;;;;;;;11.50;100.00;100237.69;5091075;28;20069;-63
2021/05/07 12:00:43;;;;;;;7.07;2.10;;;;;;;11.12;100.00;100239.41;5086852;28;20073;-63
2021/05/07 12:03:11;;;;;;;7.03;1.90;;;;;;;11.17;100.00;100228.97;5091456;28;20048;-64
2021/05/07 12:05:39;;;;;;;6.10;2.25;;;;;;;10.84;100.00;100238.34;5071764;28;20080;-64
2021/05/07 12:08:06;;;;;;;7.28;1.65;;;;;;;10.40;100.00;100243.16;5071187;28;20499;-64
2021/05/07 12:10:34;;;;;;;7.78;1.80;;;;;;;10.59;100.00;100243.22;5086526;28;20059;-63
2021/05/07 12:13:02;;;;;;;4.50;1.60;;;;;;;11.25;100.00;100240.97;5090062;28;20048;-64
2021/05/07 12:15:31;;;;;;;4.47;1.60;;;;;;;11.60;100.00;100232.28;5090948;28;20075;-63
2021/05/07 12:17:59;;;;;;;3.00;1.50;;;;;;;10.92;100.00;100232.22;5074891;28;20194;-63
2021/05/07 12:20:27;;;;;;;7.45;1.90;;;;;;;10.50;100.00;100239.50;5070734;28;20044;-64
2021/05/07 12:22:56;;;;;;;5.32;1.77;;;;;;;10.43;100.00;100238.31;5085094;28;20126;-64
2021/05/07 12:25:24;;;;;;;8.95;3.72;;;;;;;10.60;100.00;100239.53;5090425;28;20059;-64
2021/05/07 12:27:52;;;;;;;7.43;2.40;;;;;;;10.96;100.00;100247.22;5077744;28;20118;-63
2021/05/07 12:30:23;;;;;;;3.90;1.80;;;;;;;12.10;100.00;100239.41;5086449;28;20043;-63
2021/05/07 12:32:54;;;;;;;5.00;2.10;;;;;;;11.86;100.00;100237.13;5089427;28;20047;-63